sensor_id;sensor_type;location;lat;lon;timestamp;temperature;humidity
5560;DHT22;2803;47.916;8.074;2023-02-04T00:02:20;7.20;99.90
5560;DHT22;2803;47.916;8.074;2023-02-04T00:04:48;7.50;99.90
5560;DHT22;2803;47.916;8.074;2023-02-04T00:07:14;7.20;99.90
5560;DHT22;2803;47.916;8.074;2023-02-04T00:09:42;7.40;99.90
5560;DHT22;2803;47.916;8.074;2023-02-04T00:12:11;7.70;99.90
5560;DHT22;2803;47.916;8.074;2023-02-04T00:14:37;7.50;99.90
5560;DHT22;2803;47.916;8.074;2023-02-04T00:17:04;7.70;99.90
5560;DHT22;2803;47.916;8.074;2023-02-04T00:19:32;7.60;99.90
5560;DHT22;2803;47.916;8.074;2023-02-04T00:21:59;7.40;99.90
5560;DHT22;2803;47.916;8.074;2023-02-04T00:24:29;7.40;99.90
5560;DHT22;2803;47.916;8.074;2023-02-04T00:26:56;7.50;99.90
5560;DHT22;2803;47.916;8.074;2023-02-04T00:29:23;7.40;99.90
5560;DHT22;2803;47.916;8.074;2023-02-04T00:31:51;7.10;99.90
5560;DHT22;2803;47.916;8.074;2023-02-04T00:34:18;7.20;99.90
5560;DHT22;2803;47.916;8.074;2023-02-04T00:36:46;7.20;99.90
5560;DHT22;2803;47.916;8.074;2023-02-04T00:39:16;7.20;99.90
5560;DHT22;2803;47.916;8.074;2023-02-04T00:41:42;7.10;99.90
5560;DHT22;2803;47.916;8.074;2023-02-04T00:44:09;7.30;99.90
5560;DHT22;2803;47.916;8.074;2023-02-04T00:46:38;7.40;99.90
5560;DHT22;2803;47.916;8.074;2023-02-04T00:49:04;7.20;99.90
5560;DHT22;2803;47.916;8.074;2023-02-04T00:51:35;7.50;99.90
5560;DHT22;2803;47.916;8.074;2023-02-04T00:54:02;7.30;99.90
5560;DHT22;2803;47.916;8.074;2023-02-04T00:56:30;7.60;99.90
5560;DHT22;2803;47.916;8.074;2023-02-04T00:58:56;7.60;99.90
5560;DHT22;2803;47.916;8.074;2023-02-04T01:01:23;7.40;99.90
5560;DHT22;2803;47.916;8.074;2023-02-04T01:03:49;7.80;99.90
5560;DHT22;2803;47.916;8.074;2023-02-04T01:06:16;7.90;99.90
5560;DHT22;2803;47.916;8.074;2023-02-04T01:08:42;8.20;99.90
5560;DHT22;2803;47.916;8.074;2023-02-04T01:11:09;7.90;99.90
5560;DHT22;2803;47.916;8.074;2023-02-04T01:13:37;7.80;99.90
5560;DHT22;2803;47.916;8.074;2023-02-04T01:16:03;7.70;99.90
5560;DHT22;2803;47.916;8.074;2023-02-04T01:18:30;7.90;99.90
5560;DHT22;2803;47.916;8.074;2023-02-04T01:20:57;7.80;99.90
5560;DHT22;2803;47.916;8.074;2023-02-04T01:23:23;8.20;99.90
5560;DHT22;2803;47.916;8.074;2023-02-04T01:25:50;8.30;99.90
5560;DHT22;2803;47.916;8.074;2023-02-04T01:28:16;8.10;99.90
5560;DHT22;2803;47.916;8.074;2023-02-04T01:30:44;8.30;99.90
5560;DHT22;2803;47.916;8.074;2023-02-04T01:33:11;8.30;99.90
5560;DHT22;2803;47.916;8.074;2023-02-04T01:35:38;8.20;99.90
5560;DHT22;2803;47.916;8.074;2023-02-04T01:38:04;8.30;99.90
5560;DHT22;2803;47.916;8.074;2023-02-04T01:40:31;8.10;99.90
5560;DHT22;2803;47.916;8.074;2023-02-04T01:42:57;8.20;99.90
5560;DHT22;2803;47.916;8.074;2023-02-04T01:45:24;8.10;99.90
5560;DHT22;2803;47.916;8.074;2023-02-04T01:47:52;7.90;99.90
5560;DHT22;2803;47.916;8.074;2023-02-04T01:50:19;7.80;99.90
5560;DHT22;2803;47.916;8.074;2023-02-04T01:52:46;7.60;99.90
5560;DHT22;2803;47.916;8.074;2023-02-04T01:55:14;7.80;99.90
5560;DHT22;2803;47.916;8.074;2023-02-04T01:57:41;7.90;99.90
5560;DHT22;2803;47.916;8.074;2023-02-04T02:00:14;7.90;99.90
5560;DHT22;2803;47.916;8.074;2023-02-04T02:02:43;7.80;99.90
5560;DHT22;2803;47.916;8.074;2023-02-04T02:05:14;8.00;99.90
5560;DHT22;2803;47.916;8.074;2023-02-04T02:07:42;7.90;99.90
5560;DHT22;2803;47.916;8.074;2023-02-04T02:10:10;7.70;99.90
5560;DHT22;2803;47.916;8.074;2023-02-04T02:12:38;7.80;99.90
5560;DHT22;2803;47.916;8.074;2023-02-04T02:15:06;7.80;99.90
5560;DHT22;2803;47.916;8.074;2023-02-04T02:17:32;7.80;99.90
5560;DHT22;2803;47.916;8.074;2023-02-04T02:19:59;7.80;99.90
5560;DHT22;2803;47.916;8.074;2023-02-04T02:22:29;7.70;99.90
5560;DHT22;2803;47.916;8.074;2023-02-04T02:24:59;7.80;99.90
5560;DHT22;2803;47.916;8.074;2023-02-04T02:27:25;7.90;99.90
5560;DHT22;2803;47.916;8.074;2023-02-04T02:29:52;7.70;99.90
5560;DHT22;2803;47.916;8.074;2023-02-04T02:32:19;7.80;99.90
5560;DHT22;2803;47.916;8.074;2023-02-04T02:34:45;7.60;99.90
5560;DHT22;2803;47.916;8.074;2023-02-04T02:37:12;7.50;99.90
5560;DHT22;2803;47.916;8.074;2023-02-04T02:39:40;7.60;99.90
5560;DHT22;2803;47.916;8.074;2023-02-04T02:42:11;7.30;99.90
5560;DHT22;2803;47.916;8.074;2023-02-04T02:44:39;7.80;99.90
5560;DHT22;2803;47.916;8.074;2023-02-04T02:47:07;7.40;99.90
5560;DHT22;2803;47.916;8.074;2023-02-04T02:49:37;7.50;99.90
5560;DHT22;2803;47.916;8.074;2023-02-04T02:52:05;7.50;99.90
5560;DHT22;2803;47.916;8.074;2023-02-04T02:54:32;7.60;99.90
5560;DHT22;2803;47.916;8.074;2023-02-04T02:56:59;7.80;99.90
5560;DHT22;2803;47.916;8.074;2023-02-04T02:59:27;8.20;99.90
5560;DHT22;2803;47.916;8.074;2023-02-04T03:01:56;7.90;99.90
5560;DHT22;2803;47.916;8.074;2023-02-04T03:04:24;7.90;99.90
5560;DHT22;2803;47.916;8.074;2023-02-04T03:06:52;7.90;99.90
5560;DHT22;2803;47.916;8.074;2023-02-04T03:09:20;8.40;99.90
5560;DHT22;2803;47.916;8.074;2023-02-04T03:11:48;8.10;99.90
5560;DHT22;2803;47.916;8.074;2023-02-04T03:14:14;8.50;99.90
5560;DHT22;2803;47.916;8.074;2023-02-04T03:16:42;8.40;99.90
5560;DHT22;2803;47.916;8.074;2023-02-04T03:19:10;8.40;99.90
5560;DHT22;2803;47.916;8.074;2023-02-04T03:21:37;7.90;99.90
5560;DHT22;2803;47.916;8.074;2023-02-04T03:24:04;8.10;99.90
5560;DHT22;2803;47.916;8.074;2023-02-04T03:26:31;8.00;99.90
5560;DHT22;2803;47.916;8.074;2023-02-04T03:28:58;8.30;99.90
5560;DHT22;2803;47.916;8.074;2023-02-04T03:31:25;8.20;99.90
5560;DHT22;2803;47.916;8.074;2023-02-04T03:33:53;8.20;99.90
5560;DHT22;2803;47.916;8.074;2023-02-04T03:36:19;8.20;99.90
5560;DHT22;2803;47.916;8.074;2023-02-04T03:38:46;8.30;99.90
5560;DHT22;2803;47.916;8.074;2023-02-04T03:41:12;8.30;99.90
5560;DHT22;2803;47.916;8.074;2023-02-04T03:43:39;8.20;99.90
5560;DHT22;2803;47.916;8.074;2023-02-04T03:46:05;8.00;99.90
5560;DHT22;2803;47.916;8.074;2023-02-04T03:48:32;8.00;99.90
5560;DHT22;2803;47.916;8.074;2023-02-04T03:51:00;7.80;99.90
5560;DHT22;2803;47.916;8.074;2023-02-04T03:53:26;7.50;99.90
5560;DHT22;2803;47.916;8.074;2023-02-04T03:55:53;7.60;99.90
5560;DHT22;2803;47.916;8.074;2023-02-04T03:58:20;7.80;99.90
5560;DHT22;2803;47.916;8.074;2023-02-04T04:00:46;8.10;99.90
5560;DHT22;2803;47.916;8.074;2023-02-04T04:03:13;8.30;99.90
5560;DHT22;2803;47.916;8.074;2023-02-04T04:05:40;8.10;99.90
5560;DHT22;2803;47.916;8.074;2023-02-04T04:08:08;8.60;99.90
5560;DHT22;2803;47.916;8.074;2023-02-04T04:10:35;8.80;99.90
5560;DHT22;2803;47.916;8.074;2023-02-04T04:13:03;8.80;99.90
5560;DHT22;2803;47.916;8.074;2023-02-04T04:15:30;9.10;99.90
5560;DHT22;2803;47.916;8.074;2023-02-04T04:17:59;8.90;99.90
5560;DHT22;2803;47.916;8.074;2023-02-04T04:20:27;9.10;99.90
5560;DHT22;2803;47.916;8.074;2023-02-04T04:22:55;8.90;99.90
5560;DHT22;2803;47.916;8.074;2023-02-04T04:25:24;8.90;99.90
5560;DHT22;2803;47.916;8.074;2023-02-04T04:27:51;9.20;99.90
5560;DHT22;2803;47.916;8.074;2023-02-04T04:30:19;9.40;99.90
5560;DHT22;2803;47.916;8.074;2023-02-04T04:32:47;9.60;99.90
5560;DHT22;2803;47.916;8.074;2023-02-04T04:35:14;9.20;99.90
5560;DHT22;2803;47.916;8.074;2023-02-04T04:37:41;9.10;99.90
5560;DHT22;2803;47.916;8.074;2023-02-04T04:40:11;8.80;99.90
5560;DHT22;2803;47.916;8.074;2023-02-04T04:42:39;9.00;99.90
5560;DHT22;2803;47.916;8.074;2023-02-04T04:45:08;9.10;99.90
5560;DHT22;2803;47.916;8.074;2023-02-04T04:47:35;9.30;99.90
5560;DHT22;2803;47.916;8.074;2023-02-04T04:50:01;9.40;99.90
5560;DHT22;2803;47.916;8.074;2023-02-04T04:52:28;9.50;99.90
5560;DHT22;2803;47.916;8.074;2023-02-04T04:54:55;9.60;99.90
5560;DHT22;2803;47.916;8.074;2023-02-04T04:57:21;9.50;99.90
5560;DHT22;2803;47.916;8.074;2023-02-04T04:59:49;9.70;99.90
5560;DHT22;2803;47.916;8.074;2023-02-04T05:02:16;9.90;99.90
5560;DHT22;2803;47.916;8.074;2023-02-04T05:04:42;9.90;99.90
5560;DHT22;2803;47.916;8.074;2023-02-04T05:07:09;9.70;99.90
5560;DHT22;2803;47.916;8.074;2023-02-04T05:09:35;9.40;99.90
5560;DHT22;2803;47.916;8.074;2023-02-04T05:12:02;9.60;99.90
5560;DHT22;2803;47.916;8.074;2023-02-04T05:14:29;9.50;99.90
5560;DHT22;2803;47.916;8.074;2023-02-04T05:16:57;9.50;99.90
5560;DHT22;2803;47.916;8.074;2023-02-04T05:19:23;9.30;99.90
5560;DHT22;2803;47.916;8.074;2023-02-04T05:21:50;9.50;99.90
5560;DHT22;2803;47.916;8.074;2023-02-04T05:24:16;9.40;99.90
5560;DHT22;2803;47.916;8.074;2023-02-04T05:26:43;9.00;99.90
5560;DHT22;2803;47.916;8.074;2023-02-04T05:29:10;9.00;99.90
5560;DHT22;2803;47.916;8.074;2023-02-04T05:31:36;9.10;99.90
5560;DHT22;2803;47.916;8.074;2023-02-04T05:34:04;9.10;99.90
5560;DHT22;2803;47.916;8.074;2023-02-04T05:36:31;8.70;99.90
5560;DHT22;2803;47.916;8.074;2023-02-04T05:38:57;8.80;99.90
5560;DHT22;2803;47.916;8.074;2023-02-04T05:41:24;9.10;99.90
5560;DHT22;2803;47.916;8.074;2023-02-04T05:43:50;9.10;99.90
5560;DHT22;2803;47.916;8.074;2023-02-04T05:46:17;8.80;99.90
5560;DHT22;2803;47.916;8.074;2023-02-04T05:48:44;9.10;99.90
5560;DHT22;2803;47.916;8.074;2023-02-04T05:51:12;9.10;99.90
5560;DHT22;2803;47.916;8.074;2023-02-04T05:53:38;9.00;99.90
5560;DHT22;2803;47.916;8.074;2023-02-04T05:56:05;9.10;99.90
5560;DHT22;2803;47.916;8.074;2023-02-04T05:58:31;9.00;99.90
5560;DHT22;2803;47.916;8.074;2023-02-04T06:00:58;9.10;99.90
5560;DHT22;2803;47.916;8.074;2023-02-04T06:03:25;8.90;99.90
5560;DHT22;2803;47.916;8.074;2023-02-04T06:05:52;9.00;99.90
5560;DHT22;2803;47.916;8.074;2023-02-04T06:08:20;9.20;99.90
5560;DHT22;2803;47.916;8.074;2023-02-04T06:10:46;8.90;99.90
5560;DHT22;2803;47.916;8.074;2023-02-04T06:13:13;8.80;99.90
5560;DHT22;2803;47.916;8.074;2023-02-04T06:15:40;9.20;99.90
5560;DHT22;2803;47.916;8.074;2023-02-04T06:18:07;9.40;99.90
5560;DHT22;2803;47.916;8.074;2023-02-04T06:20:33;9.30;99.90
5560;DHT22;2803;47.916;8.074;2023-02-04T06:23:00;8.80;99.90
5560;DHT22;2803;47.916;8.074;2023-02-04T06:25:28;8.90;99.90
5560;DHT22;2803;47.916;8.074;2023-02-04T06:27:54;9.30;99.90
5560;DHT22;2803;47.916;8.074;2023-02-04T06:30:21;9.50;99.90
5560;DHT22;2803;47.916;8.074;2023-02-04T06:32:48;9.70;99.90
5560;DHT22;2803;47.916;8.074;2023-02-04T06:35:14;9.60;99.90
5560;DHT22;2803;47.916;8.074;2023-02-04T06:37:41;9.70;99.90
5560;DHT22;2803;47.916;8.074;2023-02-04T06:40:09;9.50;99.90
5560;DHT22;2803;47.916;8.074;2023-02-04T06:42:37;9.10;99.90
5560;DHT22;2803;47.916;8.074;2023-02-04T06:45:04;9.10;99.90
5560;DHT22;2803;47.916;8.074;2023-02-04T06:47:31;9.00;99.90
5560;DHT22;2803;47.916;8.074;2023-02-04T06:49:57;9.00;99.90
5560;DHT22;2803;47.916;8.074;2023-02-04T06:52:24;9.20;99.90
5560;DHT22;2803;47.916;8.074;2023-02-04T06:54:51;9.30;99.90
5560;DHT22;2803;47.916;8.074;2023-02-04T06:57:17;9.20;99.90
5560;DHT22;2803;47.916;8.074;2023-02-04T06:59:45;9.20;99.90
5560;DHT22;2803;47.916;8.074;2023-02-04T07:02:12;9.30;99.90
5560;DHT22;2803;47.916;8.074;2023-02-04T07:04:39;9.60;99.90
5560;DHT22;2803;47.916;8.074;2023-02-04T07:07:08;9.60;99.90
5560;DHT22;2803;47.916;8.074;2023-02-04T07:09:35;9.80;99.90
5560;DHT22;2803;47.916;8.074;2023-02-04T07:12:01;9.60;99.90
5560;DHT22;2803;47.916;8.074;2023-02-04T07:14:28;9.40;99.90
5560;DHT22;2803;47.916;8.074;2023-02-04T07:16:56;9.50;99.90
5560;DHT22;2803;47.916;8.074;2023-02-04T07:19:23;9.60;99.90
5560;DHT22;2803;47.916;8.074;2023-02-04T07:21:49;9.20;99.90
5560;DHT22;2803;47.916;8.074;2023-02-04T07:24:18;9.20;99.90
5560;DHT22;2803;47.916;8.074;2023-02-04T07:26:44;9.60;99.90
5560;DHT22;2803;47.916;8.074;2023-02-04T07:29:11;9.70;99.90
5560;DHT22;2803;47.916;8.074;2023-02-04T07:31:38;9.50;99.90
5560;DHT22;2803;47.916;8.074;2023-02-04T07:34:06;9.60;99.90
5560;DHT22;2803;47.916;8.074;2023-02-04T07:36:32;9.60;99.90
5560;DHT22;2803;47.916;8.074;2023-02-04T07:38:59;9.70;99.90
5560;DHT22;2803;47.916;8.074;2023-02-04T07:41:25;9.80;99.90
5560;DHT22;2803;47.916;8.074;2023-02-04T07:43:52;9.90;99.90
5560;DHT22;2803;47.916;8.074;2023-02-04T07:46:18;9.50;99.90
5560;DHT22;2803;47.916;8.074;2023-02-04T07:48:45;9.70;99.90
5560;DHT22;2803;47.916;8.074;2023-02-04T07:51:13;9.60;99.90
5560;DHT22;2803;47.916;8.074;2023-02-04T07:53:39;9.70;99.90
5560;DHT22;2803;47.916;8.074;2023-02-04T07:56:06;9.70;99.90
5560;DHT22;2803;47.916;8.074;2023-02-04T07:58:33;9.80;99.90
5560;DHT22;2803;47.916;8.074;2023-02-04T08:00:59;9.90;99.90
5560;DHT22;2803;47.916;8.074;2023-02-04T08:03:26;10.00;99.90
5560;DHT22;2803;47.916;8.074;2023-02-04T08:05:53;9.60;99.90
5560;DHT22;2803;47.916;8.074;2023-02-04T08:08:21;9.30;99.90
5560;DHT22;2803;47.916;8.074;2023-02-04T08:10:48;9.60;99.90
5560;DHT22;2803;47.916;8.074;2023-02-04T08:13:15;9.80;99.90
5560;DHT22;2803;47.916;8.074;2023-02-04T08:15:41;9.70;99.90
5560;DHT22;2803;47.916;8.074;2023-02-04T08:18:08;9.80;99.90
5560;DHT22;2803;47.916;8.074;2023-02-04T08:20:34;9.80;99.90
5560;DHT22;2803;47.916;8.074;2023-02-04T08:23:01;9.90;99.90
5560;DHT22;2803;47.916;8.074;2023-02-04T08:25:29;9.70;99.90
5560;DHT22;2803;47.916;8.074;2023-02-04T08:27:55;9.60;99.90
5560;DHT22;2803;47.916;8.074;2023-02-04T08:30:22;9.60;99.90
5560;DHT22;2803;47.916;8.074;2023-02-04T08:32:48;9.80;99.90
5560;DHT22;2803;47.916;8.074;2023-02-04T08:35:15;9.80;99.90
5560;DHT22;2803;47.916;8.074;2023-02-04T08:37:42;10.00;99.90
5560;DHT22;2803;47.916;8.074;2023-02-04T08:40:09;9.80;99.90
5560;DHT22;2803;47.916;8.074;2023-02-04T08:42:37;9.90;99.90
5560;DHT22;2803;47.916;8.074;2023-02-04T08:45:04;9.90;99.90
5560;DHT22;2803;47.916;8.074;2023-02-04T08:47:31;9.80;99.90
5560;DHT22;2803;47.916;8.074;2023-02-04T08:49:57;10.00;99.90
5560;DHT22;2803;47.916;8.074;2023-02-04T08:52:24;9.90;99.90
5560;DHT22;2803;47.916;8.074;2023-02-04T08:54:51;9.60;99.90
5560;DHT22;2803;47.916;8.074;2023-02-04T08:57:17;9.60;99.90
5560;DHT22;2803;47.916;8.074;2023-02-04T08:59:45;9.90;99.90
5560;DHT22;2803;47.916;8.074;2023-02-04T09:02:12;10.10;99.90
5560;DHT22;2803;47.916;8.074;2023-02-04T09:04:38;9.80;99.90
5560;DHT22;2803;47.916;8.074;2023-02-04T09:07:05;9.60;99.90
5560;DHT22;2803;47.916;8.074;2023-02-04T09:09:31;9.90;99.90
5560;DHT22;2803;47.916;8.074;2023-02-04T09:11:58;9.70;99.90
5560;DHT22;2803;47.916;8.074;2023-02-04T09:14:26;9.70;99.90
5560;DHT22;2803;47.916;8.074;2023-02-04T09:16:54;9.60;99.90
5560;DHT22;2803;47.916;8.074;2023-02-04T09:19:20;9.90;99.90
5560;DHT22;2803;47.916;8.074;2023-02-04T09:21:49;9.90;99.90
5560;DHT22;2803;47.916;8.074;2023-02-04T09:24:16;10.00;99.90
5560;DHT22;2803;47.916;8.074;2023-02-04T09:26:43;10.00;99.90
5560;DHT22;2803;47.916;8.074;2023-02-04T09:29:09;9.90;99.90
5560;DHT22;2803;47.916;8.074;2023-02-04T09:31:36;9.60;99.90
5560;DHT22;2803;47.916;8.074;2023-02-04T09:34:05;9.60;99.90
5560;DHT22;2803;47.916;8.074;2023-02-04T09:36:31;9.50;99.90
5560;DHT22;2803;47.916;8.074;2023-02-04T09:39:02;9.50;99.90
5560;DHT22;2803;47.916;8.074;2023-02-04T09:41:30;9.70;99.90
5560;DHT22;2803;47.916;8.074;2023-02-04T09:43:57;9.70;99.90
5560;DHT22;2803;47.916;8.074;2023-02-04T09:46:26;9.60;99.90
5560;DHT22;2803;47.916;8.074;2023-02-04T09:48:54;9.90;99.90
5560;DHT22;2803;47.916;8.074;2023-02-04T09:51:25;9.70;99.90
5560;DHT22;2803;47.916;8.074;2023-02-04T09:53:54;9.60;99.90
5560;DHT22;2803;47.916;8.074;2023-02-04T09:56:25;9.60;99.90
5560;DHT22;2803;47.916;8.074;2023-02-04T09:58:52;9.70;99.90
5560;DHT22;2803;47.916;8.074;2023-02-04T10:01:19;9.80;99.90
5560;DHT22;2803;47.916;8.074;2023-02-04T10:03:47;9.80;99.90
5560;DHT22;2803;47.916;8.074;2023-02-04T10:06:17;9.90;99.90
5560;DHT22;2803;47.916;8.074;2023-02-04T10:08:47;9.90;99.90
5560;DHT22;2803;47.916;8.074;2023-02-04T10:11:15;10.00;99.90
5560;DHT22;2803;47.916;8.074;2023-02-04T10:13:46;9.70;99.90
5560;DHT22;2803;47.916;8.074;2023-02-04T10:16:16;9.50;99.90
5560;DHT22;2803;47.916;8.074;2023-02-04T10:18:43;9.10;99.90
5560;DHT22;2803;47.916;8.074;2023-02-04T10:21:14;9.10;99.90
5560;DHT22;2803;47.916;8.074;2023-02-04T10:23:43;9.50;99.90
5560;DHT22;2803;47.916;8.074;2023-02-04T10:26:13;9.90;99.90
5560;DHT22;2803;47.916;8.074;2023-02-04T10:28:40;10.00;99.90
5560;DHT22;2803;47.916;8.074;2023-02-04T10:31:27;10.10;99.90
5560;DHT22;2803;47.916;8.074;2023-02-04T10:34:02;10.00;99.90
5560;DHT22;2803;47.916;8.074;2023-02-04T10:36:29;9.90;99.90
5560;DHT22;2803;47.916;8.074;2023-02-04T10:39:00;9.90;99.90
5560;DHT22;2803;47.916;8.074;2023-02-04T10:41:28;9.70;99.90
5560;DHT22;2803;47.916;8.074;2023-02-04T10:44:02;9.90;99.90
5560;DHT22;2803;47.916;8.074;2023-02-04T10:46:30;10.00;99.90
5560;DHT22;2803;47.916;8.074;2023-02-04T10:48:58;10.20;99.90
5560;DHT22;2803;47.916;8.074;2023-02-04T10:51:24;10.30;99.90
5560;DHT22;2803;47.916;8.074;2023-02-04T10:53:51;10.50;99.90
5560;DHT22;2803;47.916;8.074;2023-02-04T10:56:33;10.60;99.90
5560;DHT22;2803;47.916;8.074;2023-02-04T10:59:00;10.60;99.90
5560;DHT22;2803;47.916;8.074;2023-02-04T11:01:27;10.40;99.90
5560;DHT22;2803;47.916;8.074;2023-02-04T11:03:55;10.50;99.90
5560;DHT22;2803;47.916;8.074;2023-02-04T11:06:23;10.50;99.90
5560;DHT22;2803;47.916;8.074;2023-02-04T11:08:50;10.50;99.90
5560;DHT22;2803;47.916;8.074;2023-02-04T11:11:21;10.50;99.90
5560;DHT22;2803;47.916;8.074;2023-02-04T11:13:59;10.50;99.90
5560;DHT22;2803;47.916;8.074;2023-02-04T11:16:28;10.50;99.90
5560;DHT22;2803;47.916;8.074;2023-02-04T11:18:58;10.60;99.90
5560;DHT22;2803;47.916;8.074;2023-02-04T11:21:27;10.80;99.90
5560;DHT22;2803;47.916;8.074;2023-02-04T11:26:51;11.00;99.90
5560;DHT22;2803;47.916;8.074;2023-02-04T11:29:27;11.10;99.90
5560;DHT22;2803;47.916;8.074;2023-02-04T11:32:01;10.80;99.90
5560;DHT22;2803;47.916;8.074;2023-02-04T11:34:42;10.80;99.90
5560;DHT22;2803;47.916;8.074;2023-02-04T11:37:15;10.60;99.90
5560;DHT22;2803;47.916;8.074;2023-02-04T11:39:44;10.90;99.90
5560;DHT22;2803;47.916;8.074;2023-02-04T11:42:18;10.80;99.90
5560;DHT22;2803;47.916;8.074;2023-02-04T11:44:51;10.70;99.90
5560;DHT22;2803;47.916;8.074;2023-02-04T11:47:19;10.50;99.90
5560;DHT22;2803;47.916;8.074;2023-02-04T11:49:52;10.40;99.90
5560;DHT22;2803;47.916;8.074;2023-02-04T11:52:20;10.60;99.90
5560;DHT22;2803;47.916;8.074;2023-02-04T11:54:52;10.70;99.90
5560;DHT22;2803;47.916;8.074;2023-02-04T11:57:19;10.70;99.90
5560;DHT22;2803;47.916;8.074;2023-02-04T11:59:46;10.50;99.90
5560;DHT22;2803;47.916;8.074;2023-02-04T12:02:16;10.40;99.90
5560;DHT22;2803;47.916;8.074;2023-02-04T12:04:50;10.00;99.90
5560;DHT22;2803;47.916;8.074;2023-02-04T12:07:22;9.90;99.90
5560;DHT22;2803;47.916;8.074;2023-02-04T12:09:49;9.80;99.90
5560;DHT22;2803;47.916;8.074;2023-02-04T12:12:23;10.10;99.90
5560;DHT22;2803;47.916;8.074;2023-02-04T12:14:56;10.30;99.90
5560;DHT22;2803;47.916;8.074;2023-02-04T12:17:25;10.40;99.90
5560;DHT22;2803;47.916;8.074;2023-02-04T12:19:51;10.30;99.90
5560;DHT22;2803;47.916;8.074;2023-02-04T12:22:18;10.30;99.90
5560;DHT22;2803;47.916;8.074;2023-02-04T12:24:44;10.00;99.90
5560;DHT22;2803;47.916;8.074;2023-02-04T12:27:11;10.30;99.90
5560;DHT22;2803;47.916;8.074;2023-02-04T12:29:37;10.50;99.90
5560;DHT22;2803;47.916;8.074;2023-02-04T12:32:04;10.80;99.90
5560;DHT22;2803;47.916;8.074;2023-02-04T12:34:32;10.90;99.90
5560;DHT22;2803;47.916;8.074;2023-02-04T12:36:58;10.80;99.90
5560;DHT22;2803;47.916;8.074;2023-02-04T12:39:25;11.00;99.90
5560;DHT22;2803;47.916;8.074;2023-02-04T12:41:52;11.10;99.90
5560;DHT22;2803;47.916;8.074;2023-02-04T12:44:19;10.90;99.90
5560;DHT22;2803;47.916;8.074;2023-02-04T12:46:46;11.20;99.90
5560;DHT22;2803;47.916;8.074;2023-02-04T12:49:13;11.30;99.90
5560;DHT22;2803;47.916;8.074;2023-02-04T12:51:42;11.20;99.90
5560;DHT22;2803;47.916;8.074;2023-02-04T12:54:09;11.20;99.90
5560;DHT22;2803;47.916;8.074;2023-02-04T12:56:38;11.00;99.90
5560;DHT22;2803;47.916;8.074;2023-02-04T12:59:05;10.80;99.90
5560;DHT22;2803;47.916;8.074;2023-02-04T13:01:32;10.90;99.90
5560;DHT22;2803;47.916;8.074;2023-02-04T13:04:00;10.80;99.90
5560;DHT22;2803;47.916;8.074;2023-02-04T13:06:26;10.80;99.90
5560;DHT22;2803;47.916;8.074;2023-02-04T13:08:54;10.90;99.90
5560;DHT22;2803;47.916;8.074;2023-02-04T13:11:21;10.90;99.90
5560;DHT22;2803;47.916;8.074;2023-02-04T13:13:47;10.60;99.90
5560;DHT22;2803;47.916;8.074;2023-02-04T13:16:14;10.50;99.90
5560;DHT22;2803;47.916;8.074;2023-02-04T13:18:43;10.50;99.90
5560;DHT22;2803;47.916;8.074;2023-02-04T13:21:10;10.40;99.90
5560;DHT22;2803;47.916;8.074;2023-02-04T13:23:36;10.10;99.90
5560;DHT22;2803;47.916;8.074;2023-02-04T13:26:04;10.30;99.90
5560;DHT22;2803;47.916;8.074;2023-02-04T13:28:32;10.60;99.90
5560;DHT22;2803;47.916;8.074;2023-02-04T13:30:58;10.50;99.90
5560;DHT22;2803;47.916;8.074;2023-02-04T13:33:25;10.70;99.90
5560;DHT22;2803;47.916;8.074;2023-02-04T13:35:51;10.70;99.90
5560;DHT22;2803;47.916;8.074;2023-02-04T13:38:18;10.50;99.90
5560;DHT22;2803;47.916;8.074;2023-02-04T13:40:45;10.50;99.90
5560;DHT22;2803;47.916;8.074;2023-02-04T13:43:12;10.50;99.90
5560;DHT22;2803;47.916;8.074;2023-02-04T13:45:39;10.60;99.90
5560;DHT22;2803;47.916;8.074;2023-02-04T13:48:12;10.50;99.90
5560;DHT22;2803;47.916;8.074;2023-02-04T13:50:38;10.50;99.90
5560;DHT22;2803;47.916;8.074;2023-02-04T13:53:05;10.60;99.90
5560;DHT22;2803;47.916;8.074;2023-02-04T13:55:32;10.30;99.90
5560;DHT22;2803;47.916;8.074;2023-02-04T13:57:59;10.30;99.90
5560;DHT22;2803;47.916;8.074;2023-02-04T14:00:27;10.40;99.90
5560;DHT22;2803;47.916;8.074;2023-02-04T14:02:53;10.50;99.90
5560;DHT22;2803;47.916;8.074;2023-02-04T14:05:20;10.40;99.90
5560;DHT22;2803;47.916;8.074;2023-02-04T14:07:47;10.40;99.90
5560;DHT22;2803;47.916;8.074;2023-02-04T14:10:14;10.10;99.90
5560;DHT22;2803;47.916;8.074;2023-02-04T14:12:40;10.00;99.90
5560;DHT22;2803;47.916;8.074;2023-02-04T14:15:08;10.10;99.90
5560;DHT22;2803;47.916;8.074;2023-02-04T14:17:36;10.30;99.90
5560;DHT22;2803;47.916;8.074;2023-02-04T14:20:02;10.30;99.90
5560;DHT22;2803;47.916;8.074;2023-02-04T14:22:29;10.30;99.90
5560;DHT22;2803;47.916;8.074;2023-02-04T14:24:56;10.30;99.90
5560;DHT22;2803;47.916;8.074;2023-02-04T14:27:23;9.90;99.90
5560;DHT22;2803;47.916;8.074;2023-02-04T14:29:49;9.90;99.90
5560;DHT22;2803;47.916;8.074;2023-02-04T14:32:16;10.00;99.90
5560;DHT22;2803;47.916;8.074;2023-02-04T14:34:44;9.90;99.90
5560;DHT22;2803;47.916;8.074;2023-02-04T14:37:10;9.90;99.90
5560;DHT22;2803;47.916;8.074;2023-02-04T14:39:37;9.80;99.90
5560;DHT22;2803;47.916;8.074;2023-02-04T14:42:03;9.50;99.90
5560;DHT22;2803;47.916;8.074;2023-02-04T14:44:30;9.40;99.90
5560;DHT22;2803;47.916;8.074;2023-02-04T14:46:57;9.50;99.90
5560;DHT22;2803;47.916;8.074;2023-02-04T14:49:23;9.40;99.90
5560;DHT22;2803;47.916;8.074;2023-02-04T14:51:52;9.50;99.90
5560;DHT22;2803;47.916;8.074;2023-02-04T14:54:19;9.30;99.90
5560;DHT22;2803;47.916;8.074;2023-02-04T14:56:45;9.60;99.90
5560;DHT22;2803;47.916;8.074;2023-02-04T14:59:12;9.80;99.90
5560;DHT22;2803;47.916;8.074;2023-02-04T15:01:38;10.10;99.90
5560;DHT22;2803;47.916;8.074;2023-02-04T15:04:06;10.20;99.90
5560;DHT22;2803;47.916;8.074;2023-02-04T15:06:33;10.20;99.90
5560;DHT22;2803;47.916;8.074;2023-02-04T15:09:01;10.10;99.90
5560;DHT22;2803;47.916;8.074;2023-02-04T15:11:27;10.20;99.90
5560;DHT22;2803;47.916;8.074;2023-02-04T15:13:54;10.20;99.90
5560;DHT22;2803;47.916;8.074;2023-02-04T15:16:21;10.10;99.90
5560;DHT22;2803;47.916;8.074;2023-02-04T15:18:47;10.10;99.90
5560;DHT22;2803;47.916;8.074;2023-02-04T15:21:14;9.90;99.90
5560;DHT22;2803;47.916;8.074;2023-02-04T15:23:42;10.10;99.90
5560;DHT22;2803;47.916;8.074;2023-02-04T15:26:14;10.20;99.90
5560;DHT22;2803;47.916;8.074;2023-02-04T15:28:41;10.20;99.90
5560;DHT22;2803;47.916;8.074;2023-02-04T15:31:09;10.30;99.90
5560;DHT22;2803;47.916;8.074;2023-02-04T15:33:37;10.30;99.90
5560;DHT22;2803;47.916;8.074;2023-02-04T15:36:04;10.30;99.90
5560;DHT22;2803;47.916;8.074;2023-02-04T15:38:32;10.30;99.90
5560;DHT22;2803;47.916;8.074;2023-02-04T15:41:01;10.20;99.90
5560;DHT22;2803;47.916;8.074;2023-02-04T15:43:30;10.30;99.90
5560;DHT22;2803;47.916;8.074;2023-02-04T15:45:58;10.30;99.90
5560;DHT22;2803;47.916;8.074;2023-02-04T15:48:25;10.50;99.90
5560;DHT22;2803;47.916;8.074;2023-02-04T15:50:54;10.50;99.90
5560;DHT22;2803;47.916;8.074;2023-02-04T15:53:22;10.00;99.90
5560;DHT22;2803;47.916;8.074;2023-02-04T15:55:49;9.90;99.90
5560;DHT22;2803;47.916;8.074;2023-02-04T15:58:16;9.90;99.90
5560;DHT22;2803;47.916;8.074;2023-02-04T16:00:45;9.80;99.90
5560;DHT22;2803;47.916;8.074;2023-02-04T16:03:12;9.80;99.90
5560;DHT22;2803;47.916;8.074;2023-02-04T16:05:39;9.60;99.90
5560;DHT22;2803;47.916;8.074;2023-02-04T16:08:06;9.20;99.90
5560;DHT22;2803;47.916;8.074;2023-02-04T16:10:33;9.00;99.90
5560;DHT22;2803;47.916;8.074;2023-02-04T16:13:01;8.60;99.90
5560;DHT22;2803;47.916;8.074;2023-02-04T16:15:27;8.30;99.90
5560;DHT22;2803;47.916;8.074;2023-02-04T16:17:55;8.60;99.90